Buffalo Lake, North Carolina
Current Conditions -  °F | °C
As of 7:55 AM on Saturday 25 Oct 2014 (Local Time) from KTTA Reporting Station
Haze Haze  
Wind Chill: 38°   Ceiling: Unl
Heat Index: 38°   Visibility: 2.5mi
Dew Point: 38°   Wind: 0mph
Humidity: 100%   Direction: NA
Pressure: 30.02"   Gusts: NA
Location:  35.493°N, 79.1765°W
Report Text: KTTA 251155Z AUTO 00000KT 2 1/2SM BR CLR 04/04 A3002 RMK AO2 VIS 1 1/2V5 T00360036 10081 20033
Loading
Personal Weather Stations






























Interactive Weather Map
Tropical Storm Tracking
New forecast layout! Learn more

10-Day Weather Forecast

Advertisements
Track Severe Weather on mobile